createdAt,value
2023-02-28T00:00:45.788Z,1.2
2023-02-28T00:01:54.541Z,1.3
2023-02-28T00:03:04.254Z,1
2023-02-28T00:04:12.833Z,1.4
2023-02-28T00:05:22.513Z,1.1
2023-02-28T00:06:32.172Z,1.4
2023-02-28T00:07:40.872Z,1.2
2023-02-28T00:08:49.556Z,1.6
2023-02-28T00:09:59.222Z,1.2
2023-02-28T00:11:07.912Z,1.5
2023-02-28T00:12:17.611Z,1
2023-02-28T00:13:27.281Z,1.6
2023-02-28T00:14:34.964Z,1.2
2023-02-28T00:15:44.624Z,1.1
2023-02-28T00:16:53.334Z,1.5
2023-02-28T00:18:01.987Z,1.1
2023-02-28T00:19:11.666Z,1.1
2023-02-28T00:20:20.339Z,1.3
2023-02-28T00:21:30.310Z,0.9
2023-02-28T00:22:39.696Z,1
2023-02-28T00:23:47.347Z,1.2
2023-02-28T00:24:57.023Z,0.7
2023-02-28T00:26:05.717Z,1.2
2023-02-28T00:27:15.377Z,1.1
2023-02-28T00:28:25.059Z,1.2
2023-02-28T00:29:32.720Z,1.1
2023-02-28T00:30:42.511Z,1.4
2023-02-28T00:31:51.114Z,1.2
2023-02-28T00:32:59.775Z,1.2
2023-02-28T00:34:08.437Z,1
2023-02-28T00:35:18.149Z,1.2
2023-02-28T00:36:26.818Z,0.9
2023-02-28T00:37:36.529Z,1.1
2023-02-28T00:38:45.181Z,1.1
2023-02-28T00:39:52.853Z,1.4
2023-02-28T00:41:02.520Z,1
2023-02-28T00:42:12.186Z,1.5
2023-02-28T00:43:20.901Z,0.9
2023-02-28T00:44:31.584Z,1.2
2023-02-28T00:45:39.249Z,1.2
2023-02-28T00:46:49.943Z,1.3
2023-02-28T00:47:59.620Z,1.1
2023-02-28T00:49:08.316Z,1
2023-02-28T00:50:17.985Z,1.2
2023-02-28T00:51:25.650Z,1.2
2023-02-28T00:52:35.361Z,0.8
2023-02-28T00:53:44.032Z,1.2
2023-02-28T00:54:53.716Z,1.2
2023-02-28T00:56:03.395Z,1
2023-02-28T00:57:13.067Z,1.2
2023-02-28T00:58:21.771Z,0.8
2023-02-28T00:59:31.448Z,1.1
2023-02-28T01:00:39.114Z,1.2
2023-02-28T01:01:48.820Z,1
2023-02-28T01:02:57.496Z,1
2023-02-28T01:04:07.233Z,1.2
2023-02-28T01:05:16.883Z,1.2
2023-02-28T01:06:25.547Z,1.4
2023-02-28T01:07:34.234Z,1.4
2023-02-28T01:08:43.930Z,1
2023-02-28T01:09:52.638Z,1
2023-02-28T01:11:01.324Z,0.8
2023-02-28T01:12:11.035Z,1.5
2023-02-28T01:13:19.715Z,1.2
2023-02-28T01:14:29.386Z,1.2
2023-02-28T01:15:39.110Z,1.1
2023-02-28T01:16:48.732Z,1.1
2023-02-28T01:17:58.439Z,1.2
2023-02-28T01:19:07.126Z,1.2
2023-02-28T01:20:16.789Z,1.1
2023-02-28T01:21:26.650Z,1.2
2023-02-28T01:22:35.103Z,0.9
2023-02-28T01:23:43.779Z,0.7
2023-02-28T01:24:52.451Z,1
2023-02-28T01:26:00.126Z,1.1
2023-02-28T01:27:08.779Z,0.8
2023-02-28T01:28:16.441Z,1.1
2023-02-28T01:29:25.118Z,1.1
2023-02-28T01:30:34.790Z,1.5
2023-02-28T01:31:42.446Z,1
2023-02-28T01:32:52.135Z,0.8
2023-02-28T01:34:01.876Z,1
2023-02-28T01:35:09.562Z,1.4
2023-02-28T01:36:19.204Z,0.7
2023-02-28T01:37:28.891Z,0.6
2023-02-28T01:38:37.585Z,0.8
2023-02-28T01:39:46.254Z,0.8
2023-02-28T01:40:53.924Z,1.1
2023-02-28T01:42:03.627Z,1
2023-02-28T01:43:12.316Z,0.9
2023-02-28T01:44:21.979Z,1
2023-02-28T01:45:31.655Z,1.2
2023-02-28T01:46:40.412Z,0.9
2023-02-28T01:47:48.992Z,1
2023-02-28T01:48:58.658Z,0.9
2023-02-28T01:50:07.331Z,0.9
2023-02-28T01:51:17.024Z,0.8
2023-02-28T01:52:26.656Z,1.1
2023-02-28T01:53:35.380Z,1.2
2023-02-28T01:54:45.049Z,1.1
2023-02-28T01:55:52.735Z,1.3
2023-02-28T01:57:01.377Z,1.1
2023-02-28T01:58:11.031Z,0.9
2023-02-28T01:59:19.709Z,1.5
2023-02-28T02:00:28.392Z,0.9
2023-02-28T02:01:37.109Z,0.9
2023-02-28T02:02:46.806Z,1
2023-02-28T02:03:56.558Z,0.7
2023-02-28T02:05:06.130Z,1.3
2023-02-28T02:06:14.788Z,0.9
2023-02-28T02:07:24.473Z,1
2023-02-28T02:08:34.149Z,1.1
2023-02-28T02:09:43.855Z,1.1
2023-02-28T02:10:53.564Z,0.9
2023-02-28T02:12:02.297Z,1.2
2023-02-28T02:13:12.027Z,1.1
2023-02-28T02:14:21.711Z,0.9
2023-02-28T02:15:30.431Z,1
2023-02-28T02:16:40.124Z,1.1
2023-02-28T02:17:48.796Z,1.2
2023-02-28T02:18:58.460Z,1.1
2023-02-28T02:20:07.131Z,0.8
2023-02-28T02:21:16.811Z,0.9
2023-02-28T02:22:26.474Z,1
2023-02-28T02:23:35.156Z,1.3
2023-02-28T02:24:44.819Z,1.3
2023-02-28T02:25:54.484Z,1.1
2023-02-28T02:27:02.179Z,1.1
2023-02-28T02:28:11.902Z,1.2
2023-02-28T02:29:21.615Z,1.1
2023-02-28T02:30:30.295Z,1.1
2023-02-28T02:31:40.022Z,1.3
2023-02-28T02:32:49.652Z,1
2023-02-28T02:33:57.318Z,1.1
2023-02-28T02:35:07.034Z,1.1
2023-02-28T02:36:15.713Z,1
2023-02-28T02:37:24.385Z,1.2
2023-02-28T02:38:34.099Z,1.1
2023-02-28T02:39:42.798Z,0.8
2023-02-28T02:40:53.437Z,1
2023-02-28T02:42:03.127Z,0.7
2023-02-28T02:43:10.790Z,0.9
2023-02-28T02:44:20.458Z,1.2
2023-02-28T02:45:29.137Z,1
2023-02-28T02:46:37.936Z,1
2023-02-28T02:47:47.575Z,1.1
2023-02-28T02:48:56.240Z,1.1
2023-02-28T02:50:04.933Z,1
2023-02-28T02:51:14.599Z,1.4
2023-02-28T02:52:24.354Z,1.1
2023-02-28T02:53:34.074Z,1.2
2023-02-28T02:54:43.772Z,1.3
2023-02-28T02:55:51.470Z,1.2
2023-02-28T02:57:01.300Z,1.4
2023-02-28T02:58:10.974Z,1.3
2023-02-28T02:59:20.656Z,1.6
2023-02-28T03:00:30.325Z,1.6
2023-02-28T03:01:38.997Z,1.6
2023-02-28T03:02:48.701Z,1.5
2023-02-28T03:03:58.377Z,1.4
2023-02-28T03:05:06.055Z,1.7
2023-02-28T03:06:15.721Z,1.2
2023-02-28T03:07:23.416Z,1.5
2023-02-28T03:08:33.084Z,1.4
2023-02-28T03:09:42.785Z,1.3
2023-02-28T03:10:52.462Z,1.6
2023-02-28T03:12:02.155Z,1.7
2023-02-28T03:13:10.813Z,1.6
2023-02-28T03:14:19.461Z,1.5
2023-02-28T03:15:29.187Z,1.5
2023-02-28T03:16:37.977Z,1.2
2023-02-28T03:17:47.660Z,1.6
2023-02-28T03:18:57.334Z,1.4
2023-02-28T03:20:08.308Z,1.7
2023-02-28T03:21:17.793Z,1.5
2023-02-28T03:22:26.428Z,1.6
2023-02-28T03:23:34.096Z,1.4
2023-02-28T03:24:43.783Z,1.5
2023-02-28T03:25:53.505Z,1.3
2023-02-28T03:27:03.185Z,1.3
2023-02-28T03:28:12.887Z,1.7
2023-02-28T03:29:21.547Z,1.1
2023-02-28T03:30:31.328Z,1.1
2023-02-28T03:31:40.090Z,1
2023-02-28T03:32:48.681Z,1.1
2023-02-28T03:33:58.358Z,1.2
2023-02-28T03:35:07.053Z,1.2
2023-02-28T03:36:16.812Z,1.4
2023-02-28T03:37:26.539Z,1.1
2023-02-28T03:38:35.138Z,0.9
2023-02-28T03:39:44.808Z,1.2
2023-02-28T03:40:54.495Z,1.3
2023-02-28T03:42:02.173Z,1.4
2023-02-28T03:43:11.848Z,0.9
2023-02-28T03:44:20.565Z,1.3
2023-02-28T03:45:30.238Z,1.1
2023-02-28T03:46:39.903Z,1
2023-02-28T03:47:48.597Z,1.3
2023-02-28T03:48:58.268Z,1.3
2023-02-28T03:50:06.940Z,1.2
2023-02-28T03:51:14.616Z,1.4
2023-02-28T03:52:24.303Z,1.2
2023-02-28T03:53:33.014Z,1
2023-02-28T03:54:42.688Z,1
2023-02-28T03:55:52.381Z,1.4
2023-02-28T03:57:00.046Z,1.1
2023-02-28T03:58:09.738Z,1
2023-02-28T03:59:19.410Z,0.9
2023-02-28T04:00:28.085Z,1.1
2023-02-28T04:01:37.817Z,1.3
2023-02-28T04:02:45.432Z,1
2023-02-28T04:03:54.103Z,0.9
2023-02-28T04:05:03.770Z,0.9
2023-02-28T04:06:12.473Z,1.3
2023-02-28T04:07:22.160Z,1.6
2023-02-28T04:08:31.831Z,1.4
2023-02-28T04:09:40.500Z,1.1
2023-02-28T04:10:50.224Z,1
2023-02-28T04:11:58.898Z,1.1
2023-02-28T04:13:07.626Z,1.2
2023-02-28T04:14:17.308Z,1.3
2023-02-28T04:15:24.969Z,1.7
2023-02-28T04:16:35.902Z,1.3
2023-02-28T04:17:44.397Z,1
2023-02-28T04:18:53.097Z,1.2
2023-02-28T04:20:02.787Z,1.1
2023-02-28T04:21:11.493Z,1.4
2023-02-28T04:22:20.172Z,1.5
2023-02-28T04:23:29.851Z,1.4
2023-02-28T04:24:38.539Z,1.7
2023-02-28T04:25:48.206Z,1.4
2023-02-28T04:26:57.932Z,1.8
2023-02-28T04:28:07.600Z,1.6
2023-02-28T04:29:16.318Z,1.8
2023-02-28T04:30:25.995Z,2.3
2023-02-28T04:31:34.841Z,2.5
2023-02-28T04:32:44.582Z,2.4
2023-02-28T04:33:54.181Z,2.9
2023-02-28T04:35:04.125Z,2.4
2023-02-28T04:36:13.862Z,1.7
2023-02-28T04:37:22.544Z,2
2023-02-28T04:38:32.251Z,1
2023-02-28T04:39:41.966Z,1.4
2023-02-28T04:40:49.617Z,1.4
2023-02-28T04:41:59.309Z,1
2023-02-28T04:43:08.983Z,1.4
2023-02-28T04:44:17.650Z,1
2023-02-28T04:45:27.323Z,1.2
2023-02-28T04:46:35.036Z,1.6
2023-02-28T04:47:43.701Z,1.6
2023-02-28T04:48:54.383Z,1.3
2023-02-28T04:50:03.006Z,1.5
2023-02-28T04:51:12.688Z,1.4
2023-02-28T04:52:21.353Z,1.4
2023-02-28T04:53:29.013Z,1.3
2023-02-28T04:54:38.707Z,1.1
2023-02-28T04:55:48.396Z,1.1
2023-02-28T04:56:58.086Z,1.9
2023-02-28T04:58:09.757Z,1.6
2023-02-28T04:59:16.417Z,1.6
2023-02-28T05:00:26.094Z,1.6
2023-02-28T05:01:35.789Z,1.4
2023-02-28T05:02:45.471Z,1.2
2023-02-28T05:03:55.152Z,1.5
2023-02-28T05:05:03.899Z,1.5
2023-02-28T05:06:13.520Z,1.6
2023-02-28T05:07:23.215Z,1.2
2023-02-28T05:08:31.880Z,1.3
2023-02-28T05:09:41.587Z,1.3
2023-02-28T05:10:50.256Z,0.9
2023-02-28T05:11:58.958Z,1.6
2023-02-28T05:13:07.750Z,1.4
2023-02-28T05:14:15.589Z,1.2
2023-02-28T05:15:24.055Z,1.6
2023-02-28T05:16:33.796Z,1.8
2023-02-28T05:17:41.420Z,1.7
2023-02-28T05:18:51.120Z,1.2
2023-02-28T05:20:09.923Z,1.4
2023-02-28T05:21:09.402Z,1.7
2023-02-28T05:22:19.071Z,1.3
2023-02-28T05:23:27.760Z,1.2
2023-02-28T05:24:36.434Z,1.7
2023-02-28T05:25:46.128Z,2
2023-02-28T05:26:55.847Z,1.8
2023-02-28T05:28:05.491Z,2.1
2023-02-28T05:29:14.173Z,1.3
2023-02-28T05:30:21.875Z,2.1
2023-02-28T05:31:32.046Z,2
2023-02-28T05:32:40.359Z,1.9
2023-02-28T05:33:48.990Z,2
2023-02-28T05:34:58.658Z,2.1
2023-02-28T05:36:07.333Z,1.6
2023-02-28T05:37:17.050Z,2.4
2023-02-28T05:38:25.749Z,2
2023-02-28T05:39:33.453Z,1.9
2023-02-28T05:40:43.159Z,2.3
2023-02-28T05:41:50.891Z,1.8
2023-02-28T05:42:59.545Z,2.2
2023-02-28T05:44:08.243Z,1.6
2023-02-28T05:45:16.890Z,2.2
2023-02-28T05:46:26.569Z,1.8
2023-02-28T05:47:36.276Z,2.6
2023-02-28T05:48:45.957Z,1.5
2023-02-28T05:49:55.604Z,2.5
2023-02-28T05:51:04.293Z,1.9
2023-02-28T05:52:13.002Z,2.1
2023-02-28T05:53:22.692Z,2.6
2023-02-28T05:54:32.557Z,2.5
2023-02-28T05:55:42.230Z,1.7
2023-02-28T05:56:51.983Z,2.3
2023-02-28T05:57:59.615Z,2.1
2023-02-28T05:59:10.302Z,2.5
2023-02-28T06:00:18.959Z,2
2023-02-28T06:01:27.865Z,2.1
2023-02-28T06:02:37.314Z,2.2
2023-02-28T06:03:46.997Z,2.1
2023-02-28T06:04:56.666Z,2.5
2023-02-28T06:06:05.344Z,2.3
2023-02-28T06:07:15.068Z,1.8
2023-02-28T06:08:23.751Z,1.9
2023-02-28T06:09:33.446Z,2.3
2023-02-28T06:10:43.098Z,2
2023-02-28T06:11:52.788Z,1.9
2023-02-28T06:13:00.471Z,2.1
2023-02-28T06:14:10.142Z,2
2023-02-28T06:15:18.801Z,2
2023-02-28T06:16:26.503Z,1.9
2023-02-28T06:17:36.197Z,1.8
2023-02-28T06:18:44.904Z,1.5
2023-02-28T06:19:53.576Z,2
2023-02-28T06:21:03.373Z,1.6
2023-02-28T06:22:10.026Z,2.3
2023-02-28T06:23:19.729Z,2
2023-02-28T06:24:29.420Z,2.2
2023-02-28T06:25:37.128Z,1.9
2023-02-28T06:26:46.789Z,1.9
2023-02-28T06:27:56.495Z,2.1
2023-02-28T06:29:06.195Z,1.7
2023-02-28T06:30:15.848Z,2.1
2023-02-28T06:31:24.582Z,2.1
2023-02-28T06:32:32.177Z,2
2023-02-28T06:33:41.871Z,2
2023-02-28T06:34:50.814Z,2.1
2023-02-28T06:36:00.525Z,2
2023-02-28T06:37:10.203Z,2.1
2023-02-28T06:38:18.922Z,1.7
2023-02-28T06:39:28.601Z,1.8
2023-02-28T06:40:38.385Z,1.9
2023-02-28T06:41:55.137Z,1.8
2023-02-28T06:42:58.785Z,2.1
2023-02-28T06:44:07.543Z,1.9
2023-02-28T06:45:17.208Z,2.4
2023-02-28T06:46:26.955Z,1.8
2023-02-28T06:47:35.624Z,2.3
2023-02-28T06:48:45.361Z,1.7
2023-02-28T06:49:55.020Z,1.8
2023-02-28T06:51:03.687Z,1.6
2023-02-28T06:52:13.394Z,1.8
2023-02-28T06:53:21.079Z,1.3
2023-02-28T06:54:28.764Z,2
2023-02-28T06:55:38.433Z,1.9
2023-02-28T06:56:47.149Z,2.1
2023-02-28T06:57:56.916Z,1.8
2023-02-28T06:59:06.565Z,1.7
2023-02-28T07:00:16.254Z,2
2023-02-28T07:01:25.969Z,1.8
2023-02-28T07:02:34.647Z,2.1
2023-02-28T07:03:43.348Z,1.8
2023-02-28T07:04:53.102Z,1.9
2023-02-28T07:06:01.715Z,1.5
2023-02-28T07:07:11.395Z,2.4
2023-02-28T07:08:20.106Z,1.9
2023-02-28T07:09:27.818Z,2.1
2023-02-28T07:10:37.553Z,2.5
2023-02-28T07:11:45.245Z,1.9
2023-02-28T07:12:54.946Z,2.7
2023-02-28T07:14:04.755Z,2.2
2023-02-28T07:15:13.399Z,2.2
2023-02-28T07:16:23.102Z,2.2
2023-02-28T07:17:32.796Z,3
2023-02-28T07:18:41.502Z,2.5
2023-02-28T07:19:51.209Z,2.9
2023-02-28T07:20:59.980Z,2.5
2023-02-28T07:22:08.772Z,2.5
2023-02-28T07:23:18.476Z,2.3
2023-02-28T07:24:27.178Z,1.8
2023-02-28T07:25:36.859Z,2.3
2023-02-28T07:26:45.637Z,2
2023-02-28T07:27:55.314Z,2.9
2023-02-28T07:29:05.029Z,2.1
2023-02-28T07:30:13.776Z,2.1
2023-02-28T07:31:23.561Z,2.9
2023-02-28T07:32:33.233Z,1.8
2023-02-28T07:33:41.790Z,2.3
2023-02-28T07:34:51.492Z,1.8
2023-02-28T07:36:01.174Z,2.2
2023-02-28T07:37:09.853Z,2.1
2023-02-28T07:38:19.556Z,2.2
2023-02-28T07:39:29.261Z,2
2023-02-28T07:40:38.990Z,2.1
2023-02-28T07:41:48.666Z,2
2023-02-28T07:42:58.368Z,1.6
2023-02-28T07:44:08.122Z,2.5
2023-02-28T07:45:16.813Z,2.3
2023-02-28T07:46:24.513Z,2.2
2023-02-28T07:47:34.208Z,2
2023-02-28T07:48:42.891Z,1.8
2023-02-28T07:49:51.591Z,1.9
2023-02-28T07:51:01.272Z,2.5
2023-02-28T07:52:11.981Z,1.6
2023-02-28T07:53:20.668Z,2
2023-02-28T07:54:29.348Z,1.8
2023-02-28T07:55:38.034Z,2.4
2023-02-28T07:56:47.733Z,2.6
2023-02-28T07:57:56.412Z,1.7
2023-02-28T07:59:06.133Z,1.9
2023-02-28T08:00:15.912Z,2
2023-02-28T08:01:25.592Z,1.7
2023-02-28T08:02:35.200Z,2.1
2023-02-28T08:03:43.853Z,2.5
2023-02-28T08:04:53.584Z,2.4
2023-02-28T08:06:03.224Z,2.2
2023-02-28T08:07:10.927Z,2
2023-02-28T08:08:20.595Z,2.1
2023-02-28T08:09:30.276Z,1.9
2023-02-28T08:10:37.975Z,2.6
2023-02-28T08:11:47.641Z,2.2
2023-02-28T08:12:56.309Z,2.1
2023-02-28T08:14:05.045Z,1.7
2023-02-28T08:15:14.731Z,2.5
2023-02-28T08:16:24.436Z,2.3
2023-02-28T08:17:35.444Z,2.1
2023-02-28T08:18:44.851Z,2
2023-02-28T08:19:53.618Z,2.6
2023-02-28T08:21:03.297Z,2.6
2023-02-28T08:22:13.001Z,2.1
2023-02-28T08:23:21.665Z,2.5
2023-02-28T08:24:31.400Z,2
2023-02-28T08:25:40.095Z,2.6
2023-02-28T08:26:49.785Z,2.3
2023-02-28T08:27:59.480Z,2.4
2023-02-28T08:29:09.179Z,2.5
2023-02-28T08:30:17.930Z,2.1
2023-02-28T08:31:27.818Z,2.5
2023-02-28T08:32:36.460Z,2.4
2023-02-28T08:33:46.045Z,2.2
2023-02-28T08:34:55.717Z,2.4
2023-02-28T08:36:03.538Z,2.9
2023-02-28T08:37:13.073Z,2.5
2023-02-28T08:38:22.747Z,1.9
2023-02-28T08:39:30.492Z,2.3
2023-02-28T08:40:40.219Z,2
2023-02-28T08:41:53.368Z,1.9
2023-02-28T08:42:58.664Z,2.7
2023-02-28T08:44:08.345Z,2.2
2023-02-28T08:45:18.099Z,2.5
2023-02-28T08:46:26.786Z,2.7
2023-02-28T08:47:36.486Z,3.3
2023-02-28T08:48:45.154Z,3
2023-02-28T08:49:54.874Z,2.7
2023-02-28T08:51:07.448Z,2.9
2023-02-28T08:52:15.192Z,2.9
2023-02-28T08:53:24.848Z,2.6
2023-02-28T08:54:33.528Z,2.4
2023-02-28T08:55:43.221Z,2.8
2023-02-28T08:56:52.083Z,2.8
2023-02-28T08:58:00.644Z,2.8
2023-02-28T08:59:10.319Z,3.3
2023-02-28T09:00:19.067Z,2.5
2023-02-28T09:01:28.140Z,2.8
2023-02-28T09:02:37.509Z,1.9
2023-02-28T09:03:46.274Z,2.7
2023-02-28T09:04:55.880Z,3.2
2023-02-28T09:06:05.572Z,2.4
2023-02-28T09:07:14.220Z,3.2
2023-02-28T09:08:23.935Z,2.2
2023-02-28T09:09:32.614Z,2.3
2023-02-28T09:10:42.346Z,3.2
2023-02-28T09:11:51.069Z,2.8
2023-02-28T09:12:59.697Z,2.5
2023-02-28T09:14:09.399Z,2.9
2023-02-28T09:15:19.113Z,2.5
2023-02-28T09:16:26.817Z,2.6
2023-02-28T09:17:36.495Z,2.8
2023-02-28T09:18:44.170Z,2.7
2023-02-28T09:19:53.862Z,2.6
2023-02-28T09:21:03.551Z,2.4
2023-02-28T09:22:12.451Z,2.2
2023-02-28T09:23:22.110Z,2.8
2023-02-28T09:24:32.267Z,2.4
2023-02-28T09:25:41.468Z,2.8
2023-02-28T09:27:03.402Z,2.4
2023-02-28T09:27:59.780Z,2.8
2023-02-28T09:29:07.413Z,2.4
2023-02-28T09:30:17.224Z,3
2023-02-28T09:31:26.978Z,2.5
2023-02-28T09:32:35.640Z,2.7
2023-02-28T09:33:44.346Z,2.8
2023-02-28T09:34:51.994Z,2.5
2023-02-28T09:36:00.773Z,2.4
2023-02-28T09:37:10.381Z,2.5
2023-02-28T09:38:20.085Z,2.6
2023-02-28T09:39:29.781Z,2.9
2023-02-28T09:40:38.592Z,2.3
2023-02-28T09:41:48.358Z,2.5
2023-02-28T09:42:56.935Z,2.1
2023-02-28T09:44:05.703Z,2.6
2023-02-28T09:45:15.391Z,2.5
2023-02-28T09:46:23.116Z,2
2023-02-28T09:47:32.740Z,2.9
2023-02-28T09:48:42.383Z,2.9
2023-02-28T09:49:50.064Z,2.6
2023-02-28T09:50:59.735Z,2.4
2023-02-28T09:52:09.411Z,3.2
2023-02-28T09:53:18.075Z,2.8
2023-02-28T09:54:27.793Z,2.7
2023-02-28T09:55:45.175Z,3
2023-02-28T09:56:48.137Z,2.7
2023-02-28T09:57:57.840Z,2.7
2023-02-28T09:59:06.502Z,2.4
2023-02-28T10:00:17.525Z,2.2
2023-02-28T10:01:25.983Z,2.5
2023-02-28T10:02:35.595Z,2.6
2023-02-28T10:03:45.283Z,2.7
2023-02-28T10:04:54.009Z,2.3
2023-02-28T10:06:03.682Z,3
2023-02-28T10:07:13.342Z,2.8
2023-02-28T10:08:21.007Z,2.2
2023-02-28T10:09:30.742Z,2.8
2023-02-28T10:10:40.407Z,3
2023-02-28T10:11:49.098Z,2.4
2023-02-28T10:12:58.755Z,2.3
2023-02-28T10:14:07.517Z,2.4
2023-02-28T10:15:16.204Z,3.2
2023-02-28T10:16:25.894Z,2.7
2023-02-28T10:17:36.400Z,2.4
2023-02-28T10:18:44.405Z,2
2023-02-28T10:19:53.074Z,2.1
2023-02-28T10:21:03.788Z,2.1
2023-02-28T10:22:13.480Z,2.2
2023-02-28T10:23:22.191Z,2.2
2023-02-28T10:24:29.879Z,2.5
2023-02-28T10:25:39.672Z,2.5
2023-02-28T10:26:48.333Z,2.6
2023-02-28T10:27:58.054Z,2.7
2023-02-28T10:29:07.844Z,1.9
2023-02-28T10:30:16.530Z,2.4
2023-02-28T10:31:26.407Z,2.4
2023-02-28T10:32:35.980Z,2.4
2023-02-28T10:33:45.665Z,3.1
2023-02-28T10:34:55.367Z,3.3
2023-02-28T10:36:06.687Z,2.9
2023-02-28T10:37:15.344Z,2.4
2023-02-28T10:38:25.069Z,3
2023-02-28T10:39:33.742Z,2.6
2023-02-28T10:40:43.495Z,3.7
2023-02-28T10:41:53.886Z,3.1
2023-02-28T10:42:59.922Z,3.3
2023-02-28T10:44:09.612Z,3.1
2023-02-28T10:45:18.319Z,3.2
2023-02-28T10:46:26.069Z,3.1
2023-02-28T10:47:35.692Z,2.2
2023-02-28T10:48:43.394Z,2.9
2023-02-28T10:49:52.160Z,2.9
2023-02-28T10:51:01.839Z,2.9
2023-02-28T10:52:09.515Z,3.3
2023-02-28T10:53:19.200Z,2.8
2023-02-28T10:54:27.855Z,2.3
2023-02-28T10:55:37.606Z,3.2
2023-02-28T10:56:47.341Z,2.6
2023-02-28T10:57:56.999Z,3.2
2023-02-28T10:59:06.690Z,2.5
2023-02-28T11:00:16.344Z,3
2023-02-28T11:01:25.091Z,3.4
2023-02-28T11:03:44.469Z,3.3
2023-02-28T11:04:55.177Z,3.4
2023-02-28T11:06:04.841Z,3.9
2023-02-28T11:07:12.541Z,3.5
2023-02-28T11:08:22.231Z,4
2023-02-28T11:09:32.000Z,3.4
2023-02-28T11:10:40.678Z,3.7
2023-02-28T11:11:50.444Z,2.8
2023-02-28T11:13:01.113Z,3.3
2023-02-28T11:14:08.710Z,3.1
2023-02-28T11:15:18.524Z,2.9
2023-02-28T11:16:27.083Z,3.5
2023-02-28T11:17:36.783Z,2.7
2023-02-28T11:18:46.484Z,3.2
2023-02-28T11:19:56.195Z,2.7
2023-02-28T11:21:04.855Z,3.1
2023-02-28T11:22:13.569Z,3.3
2023-02-28T11:23:21.241Z,3.3
2023-02-28T11:24:30.902Z,3.3
2023-02-28T11:25:38.575Z,3.5
2023-02-28T11:26:47.360Z,3.3
2023-02-28T11:27:57.084Z,3.5
2023-02-28T11:29:06.759Z,3.6
2023-02-28T11:30:16.451Z,3.7
2023-02-28T11:31:25.147Z,3.2
2023-02-28T11:32:34.952Z,3.4
2023-02-28T11:33:44.565Z,3.8
2023-02-28T11:34:52.258Z,4
2023-02-28T11:36:00.967Z,4.1
2023-02-28T11:37:10.947Z,4.5
2023-02-28T11:38:19.625Z,4.4
2023-02-28T11:39:28.338Z,4.6
2023-02-28T11:40:37.077Z,4.2
2023-02-28T11:41:44.767Z,5.1
2023-02-28T11:42:54.505Z,4.1
2023-02-28T11:44:04.203Z,4.8
2023-02-28T11:45:12.853Z,4.4
2023-02-28T11:46:22.585Z,4.7
2023-02-28T11:47:32.225Z,5.1
2023-02-28T11:48:41.882Z,4.5
2023-02-28T11:49:51.534Z,4.7
2023-02-28T11:51:00.258Z,4.6
2023-02-28T11:52:09.957Z,3.7
2023-02-28T11:53:19.638Z,3.2
2023-02-28T11:54:28.297Z,2.8
2023-02-28T11:55:37.962Z,2.8
2023-02-28T11:56:46.620Z,2.7
2023-02-28T11:57:56.317Z,2.5
2023-02-28T11:59:06.024Z,2.8
2023-02-28T12:00:14.706Z,2.8
2023-02-28T12:01:24.402Z,2.9
2023-02-28T12:02:34.101Z,2.6
2023-02-28T12:03:43.760Z,2.3
2023-02-28T12:04:53.432Z,2.6
2023-02-28T12:06:01.239Z,2.3
2023-02-28T12:07:10.930Z,2.3
2023-02-28T12:08:19.650Z,3.1
2023-02-28T12:09:29.353Z,2.4
2023-02-28T12:10:39.038Z,2.4
2023-02-28T12:11:46.773Z,2.6
2023-02-28T12:12:55.478Z,2.3
2023-02-28T12:14:05.146Z,3.2
2023-02-28T12:15:13.861Z,2.5
2023-02-28T12:16:23.594Z,4
2023-02-28T12:17:32.238Z,3.1
2023-02-28T12:18:40.902Z,2.8
2023-02-28T12:19:50.576Z,2.6
2023-02-28T12:21:00.226Z,2.9
2023-02-28T12:22:08.902Z,3.1
2023-02-28T12:23:18.623Z,2.9
2023-02-28T12:24:27.272Z,3.2
2023-02-28T12:25:35.951Z,2.7
2023-02-28T12:26:45.621Z,2.7
2023-02-28T12:27:54.394Z,2.5
2023-02-28T12:29:03.057Z,3
2023-02-28T12:30:12.777Z,3
2023-02-28T12:31:20.413Z,3
2023-02-28T12:32:30.173Z,2.5
2023-02-28T12:33:38.797Z,2.8
2023-02-28T12:34:46.477Z,3
2023-02-28T12:35:56.189Z,2.3
2023-02-28T12:37:03.822Z,2.6
2023-02-28T12:38:12.512Z,3.3
2023-02-28T12:39:23.693Z,2.9
2023-02-28T12:40:31.847Z,3.4
2023-02-28T12:41:41.529Z,3.2
2023-02-28T12:42:51.307Z,2.3
2023-02-28T12:43:59.980Z,2.8
2023-02-28T12:45:10.512Z,2.3
2023-02-28T12:46:19.356Z,3.6
2023-02-28T12:47:27.964Z,3.9
2023-02-28T12:48:37.803Z,3.3
2023-02-28T12:49:46.431Z,3.5
2023-02-28T12:50:56.110Z,4
2023-02-28T12:52:04.826Z,2.2
2023-02-28T12:53:13.526Z,3
2023-02-28T12:54:23.193Z,3.1
2023-02-28T12:55:32.880Z,2.3
2023-02-28T12:56:41.571Z,2.8
2023-02-28T12:57:51.261Z,2.3
2023-02-28T12:58:58.957Z,2.4
2023-02-28T13:00:08.628Z,2.3
2023-02-28T13:01:18.355Z,3.4
2023-02-28T13:02:26.046Z,3.2
2023-02-28T13:03:35.693Z,2.7
2023-02-28T13:04:44.415Z,3.2
2023-02-28T13:05:53.045Z,5.1
2023-02-28T13:07:02.742Z,2.1
2023-02-28T13:08:11.440Z,2.5
2023-02-28T13:09:21.110Z,4.2
2023-02-28T13:10:30.775Z,4.3
2023-02-28T13:11:39.498Z,3.1
2023-02-28T13:12:49.128Z,2.5
2023-02-28T13:13:56.857Z,3.4
2023-02-28T13:15:06.568Z,3.2
2023-02-28T13:16:17.254Z,3.4
2023-02-28T13:17:27.031Z,4.2
2023-02-28T13:18:36.636Z,3.4
2023-02-28T13:19:46.346Z,3.2
2023-02-28T13:21:01.051Z,3.2
2023-02-28T13:22:10.736Z,2.5
2023-02-28T13:23:19.443Z,2.4
2023-02-28T13:24:29.125Z,3
2023-02-28T13:25:38.804Z,2.5
2023-02-28T13:26:47.467Z,2.4
2023-02-28T13:27:57.274Z,3
2023-02-28T13:29:04.987Z,2.9
2023-02-28T13:30:14.693Z,2.7
2023-02-28T13:31:25.379Z,2.5
2023-02-28T13:32:33.009Z,3.2
2023-02-28T13:33:42.710Z,3.1
2023-02-28T13:34:52.470Z,4.6
2023-02-28T13:36:00.174Z,4.3
2023-02-28T13:37:09.776Z,4.3
2023-02-28T13:38:18.476Z,3.9
2023-02-28T13:39:27.152Z,4.4
2023-02-28T13:40:36.859Z,4.7
2023-02-28T13:41:46.544Z,4.5
2023-02-28T13:42:55.214Z,3.7
2023-02-28T13:44:04.924Z,4
2023-02-28T13:45:13.686Z,2.6
2023-02-28T13:46:23.336Z,1.7
2023-02-28T13:47:31.949Z,1.7
2023-02-28T13:48:41.693Z,2
2023-02-28T13:49:51.352Z,2.2
2023-02-28T13:51:00.046Z,2
2023-02-28T13:52:09.708Z,2.2
2023-02-28T13:53:19.406Z,2.5
2023-02-28T13:54:28.106Z,1.9
2023-02-28T13:55:37.795Z,1.9
2023-02-28T13:56:46.455Z,2.3
2023-02-28T13:57:54.140Z,2.2
2023-02-28T13:59:03.844Z,2.2
2023-02-28T14:00:12.524Z,2.3
2023-02-28T14:01:22.415Z,2.5
2023-02-28T14:02:31.964Z,3.2
2023-02-28T14:03:40.661Z,9.1
2023-02-28T14:04:50.363Z,3.9
2023-02-28T14:05:59.033Z,2.4
2023-02-28T14:07:07.782Z,2.5
2023-02-28T14:08:17.458Z,2.8
2023-02-28T14:09:26.178Z,3.6
2023-02-28T14:10:35.870Z,5.7
2023-02-28T14:11:45.614Z,2.7
2023-02-28T14:12:53.339Z,2.7
2023-02-28T14:14:03.059Z,3.4
2023-02-28T14:15:12.731Z,2.8
2023-02-28T14:16:20.448Z,3.2
2023-02-28T14:17:30.111Z,2.5
2023-02-28T14:18:38.790Z,4.6
2023-02-28T14:19:48.913Z,3.3
2023-02-28T14:20:58.309Z,3.2
2023-02-28T14:22:08.027Z,3
2023-02-28T14:23:17.733Z,3
2023-02-28T14:24:26.417Z,2.8
2023-02-28T14:25:35.108Z,3.8
2023-02-28T14:26:43.754Z,4.9
2023-02-28T14:27:53.447Z,2.6
2023-02-28T14:29:02.177Z,2.8
2023-02-28T14:30:12.041Z,4
2023-02-28T14:31:20.743Z,4.2
2023-02-28T14:32:28.497Z,2.1
2023-02-28T14:33:38.117Z,2.2
2023-02-28T14:34:46.812Z,2.3
2023-02-28T14:35:56.596Z,1.9
2023-02-28T14:37:06.196Z,1.8
2023-02-28T14:38:14.866Z,2.2
2023-02-28T14:39:24.789Z,2.2
2023-02-28T14:40:32.454Z,2.2
2023-02-28T14:41:40.140Z,2.6
2023-02-28T14:42:49.852Z,2.5
2023-02-28T14:43:59.560Z,2.8
2023-02-28T14:45:09.270Z,2.8
2023-02-28T14:46:19.101Z,2.5
2023-02-28T14:47:27.742Z,2.9
2023-02-28T14:48:37.457Z,2.4
2023-02-28T14:49:47.130Z,3
2023-02-28T14:50:54.798Z,3
2023-02-28T14:52:04.518Z,3.2
2023-02-28T14:53:12.201Z,3.1
2023-02-28T14:54:21.903Z,2.6
2023-02-28T14:55:31.648Z,2.9
2023-02-28T14:56:40.315Z,2.9
2023-02-28T14:57:50.028Z,2.9
2023-02-28T14:58:58.738Z,2.4
2023-02-28T15:00:07.491Z,2.3
2023-02-28T15:01:17.172Z,2.7
2023-02-28T15:02:25.889Z,2.3
2023-02-28T15:03:35.628Z,2.4
2023-02-28T15:04:45.393Z,2.5
2023-02-28T15:05:54.068Z,2
2023-02-28T15:07:03.748Z,2.4
2023-02-28T15:08:12.443Z,2.2
2023-02-28T15:09:21.165Z,1.9
2023-02-28T15:10:30.885Z,1.9
2023-02-28T15:11:40.599Z,2.3
2023-02-28T15:12:50.283Z,2.6
2023-02-28T15:13:58.992Z,2.7
2023-02-28T15:15:06.695Z,2.6
2023-02-28T15:16:16.408Z,2.2
2023-02-28T15:17:26.065Z,2.3
2023-02-28T15:18:34.784Z,2.2
2023-02-28T15:19:44.513Z,2.3
2023-02-28T15:20:54.188Z,2.5
2023-02-28T15:22:03.906Z,2.4
2023-02-28T15:23:13.609Z,2.1
2023-02-28T15:24:23.317Z,2
2023-02-28T15:25:33.066Z,2.2
2023-02-28T15:26:42.880Z,2.9
2023-02-28T15:27:50.589Z,2.4
2023-02-28T15:29:00.245Z,2.4
2023-02-28T15:30:09.002Z,2.2
2023-02-28T15:31:18.694Z,2.3
2023-02-28T15:32:28.483Z,2.5
2023-02-28T15:33:37.033Z,2.3
2023-02-28T15:34:46.708Z,1.9
2023-02-28T15:35:56.439Z,2.5
2023-02-28T15:37:04.167Z,2.1
2023-02-28T15:38:13.892Z,2.2
2023-02-28T15:39:22.547Z,2.5
2023-02-28T15:40:31.360Z,2.1
2023-02-28T15:41:41.098Z,1.7
2023-02-28T15:42:49.797Z,2.1
2023-02-28T15:43:59.571Z,2.3
2023-02-28T15:45:09.207Z,2.1
2023-02-28T15:46:18.905Z,3.2
2023-02-28T15:47:28.626Z,2.3
2023-02-28T15:48:37.335Z,2.7
2023-02-28T15:49:46.057Z,2.5
2023-02-28T15:50:55.757Z,2.9
2023-02-28T15:52:05.449Z,2.6
2023-02-28T15:53:15.159Z,2.5
2023-02-28T15:54:23.963Z,2.1
2023-02-28T15:55:31.557Z,2.6
2023-02-28T15:56:41.262Z,2.9
2023-02-28T15:57:48.970Z,2.7
2023-02-28T15:58:57.693Z,2.5
2023-02-28T16:00:07.396Z,2.2
2023-02-28T16:01:16.095Z,2.4